EDW weather

Edwards Air Force Base
Edwards, California, United States

Public forecast

Using degrees Fahrenheit for public forecast. Weather courtesy of forecast.io.

Current aviation weather report (METAR) for Edwards Air Force Base

Retrieved 2019/11/15 20:58 UTC (56 minutes ago):

KEDW 152058Z 19004KT 90SM BKN200 BKN250 22/M03 A3004 RMK AO2A SLP161 T02221033 57024

Aviation forecast (TAF) for Edwards Air Force Base

Retrieved 2019/11/15 22:00 UTC (0 seconds ago):

TAF TAF KEDW 152156Z 1522/1704 VRB06KT 9999 BKN200 QNH3000INS BECMG 1602/1603 VRB06KT 9999 SCT200 QNH3001INS BECMG 1620/1621 04010KT 9999 FEW250 QNH3006INS TX22/1523Z TN03/1614Z